Time;durP1;ratioP1;P1;durP2;ratioP2;P2;SDS_P1;SDS_P2;PMS_P1;PMS_P2;Temp;Humidity;BMP_temperature;BMP_pressure;BME280_temperature;BME280_humidity;BME280_pressure;Samples;Min_cycle;Max_cycle;Signal;HPM_P1;HPM_P2
2024/04/23 00:02:19;;;;;;;0.10;0.10;;;;;;;;;;5347250;26;20004;-87
2024/04/23 00:04:45;;;;;;;0.10;0.10;;;;;;;;;;5316866;26;20005;-83
2024/04/23 00:07:11;;;;;;;0.10;0.10;;;;;;;;;;5347306;26;20005;-86
2024/04/23 00:09:37;;;;;;;0.10;0.10;;;;;;;;;;5345839;26;20016;-86
2024/04/23 00:12:03;;;;;;;0.10;0.10;;;;;;;;;;5317157;26;20029;-86
2024/04/23 00:14:29;;;;;;;0.10;0.10;;;;;;;;;;5347203;26;20098;-86
2024/04/23 00:17:04;;;;;;;0.20;0.20;;;;;;;;;;5347120;26;20015;-86
2024/04/23 00:19:30;;;;;;;0.10;0.10;;;;;;;;;;5317225;26;20005;-86
2024/04/23 00:21:56;;;;;;;0.20;0.20;;;;;;;;;;5374696;26;20005;-85
2024/04/23 00:24:22;;;;;;;0.10;0.10;;;;;;;;;;5346828;26;20005;-85
2024/04/23 00:27:08;;;;;;;0.10;0.10;;;;;;;;;;5345911;26;20408;-85
2024/04/23 00:29:35;;;;;;;0.20;0.20;;;;;;;;;;5317042;26;20029;-85
2024/04/23 00:32:01;;;;;;;0.10;0.10;;;;;;;;;;5316613;26;20017;-85
2024/04/23 00:34:27;;;;;;;0.10;0.10;;;;;;;;;;5346871;26;20005;-85
2024/04/23 00:36:57;;;;;;;0.10;0.10;;;;;;;;;;5374022;26;20004;-85
2024/04/23 00:39:23;;;;;;;0.10;0.10;;;;;;;;;;5345321;26;20016;-86
2024/04/23 00:41:49;;;;;;;0.10;0.10;;;;;;;;;;5316467;26;20015;-86
2024/04/23 00:44:16;;;;;;;0.10;0.10;;;;;;;;;;5346818;26;20000;-85
2024/04/23 00:46:42;;;;;;;0.10;0.10;;;;;;;;;;5345012;26;20033;-86
2024/04/23 00:49:09;;;;;;;0.10;0.10;;;;;;;;;;5316570;26;20074;-86
2024/04/23 00:51:35;;;;;;;0.10;0.10;;;;;;;;;;5344938;26;20009;-86
2024/04/23 00:54:01;;;;;;;0.10;0.10;;;;;;;;;;5344746;26;20005;-86
2024/04/23 00:56:28;;;;;;;0.13;0.13;;;;;;;;;;5344837;26;20016;-86
2024/04/23 00:58:54;;;;;;;0.10;0.10;;;;;;;;;;5344892;26;20005;-86
2024/04/23 01:01:20;;;;;;;0.10;0.10;;;;;;;;;;5316237;26;20004;-86
2024/04/23 01:03:46;;;;;;;0.10;0.10;;;;;;;;;;5344928;26;20016;-86
2024/04/23 01:06:13;;;;;;;0.10;0.10;;;;;;;;;;5344890;26;20012;-90
2024/04/23 01:08:39;;;;;;;0.10;0.10;;;;;;;;;;5348983;26;20012;-86
2024/04/23 01:11:05;;;;;;;0.10;0.10;;;;;;;;;;5316132;26;20016;-86
2024/04/23 01:13:31;;;;;;;0.10;0.10;;;;;;;;;;5314925;26;20005;-86
2024/04/23 01:15:57;;;;;;;0.10;0.10;;;;;;;;;;5346249;26;20001;-86
2024/04/23 01:18:23;;;;;;;0.10;0.10;;;;;;;;;;5344327;26;20016;-86
2024/04/23 01:20:50;;;;;;;0.10;0.10;;;;;;;;;;5344508;26;20004;-86
2024/04/23 01:23:24;;;;;;;0.10;0.10;;;;;;;;;;5373614;26;20021;-86
2024/04/23 01:25:51;;;;;;;0.10;0.10;;;;;;;;;;5344456;26;20314;-86
2024/04/23 01:28:17;;;;;;;0.10;0.10;;;;;;;;;;5316071;26;20024;-85
2024/04/23 01:30:44;;;;;;;0.10;0.10;;;;;;;;;;5315975;26;20009;-87
2024/04/23 01:33:10;;;;;;;0.10;0.10;;;;;;;;;;5344605;26;20016;-86
2024/04/23 01:35:56;;;;;;;0.10;0.10;;;;;;;;;;5320700;26;20016;-86
2024/04/23 01:38:22;;;;;;;0.10;0.10;;;;;;;;;;5315743;26;20005;-86
2024/04/23 01:40:48;;;;;;;0.15;0.15;;;;;;;;;;5344251;26;20005;-86
2024/04/23 01:43:14;;;;;;;0.10;0.10;;;;;;;;;;5344317;26;20456;-86
2024/04/23 01:45:41;;;;;;;0.10;0.10;;;;;;;;;;5344309;26;20100;-87
2024/04/23 01:48:07;;;;;;;0.10;0.10;;;;;;;;;;5344035;26;20052;-85
2024/04/23 01:50:33;;;;;;;0.10;0.10;;;;;;;;;;5315548;26;20012;-86
2024/04/23 01:52:59;;;;;;;0.20;0.20;;;;;;;;;;5343963;26;20321;-86
2024/04/23 01:55:25;;;;;;;0.10;0.10;;;;;;;;;;5345622;26;20083;-86
2024/04/23 01:57:51;;;;;;;0.20;0.20;;;;;;;;;;5315434;26;20005;-86
2024/04/23 02:00:19;;;;;;;0.10;0.10;;;;;;;;;;5315252;26;20468;-86
2024/04/23 02:02:45;;;;;;;0.30;0.30;;;;;;;;;;5373226;26;20005;-86
2024/04/23 02:05:11;;;;;;;0.10;0.10;;;;;;;;;;5343979;26;20074;-86
2024/04/23 02:07:37;;;;;;;0.10;0.10;;;;;;;;;;5315316;26;20021;-86
2024/04/23 02:10:04;;;;;;;0.20;0.20;;;;;;;;;;5372692;26;20012;-85
2024/04/23 02:12:30;;;;;;;0.20;0.20;;;;;;;;;;5345195;26;20005;-85
2024/04/23 02:14:59;;;;;;;0.10;0.10;;;;;;;;;;5315161;26;20052;-85
2024/04/23 02:17:45;;;;;;;0.10;0.10;;;;;;;;;;5343844;26;20480;-85
2024/04/23 02:20:11;;;;;;;0.10;0.10;;;;;;;;;;5345178;26;20016;-85
2024/04/23 02:22:37;;;;;;;0.10;0.10;;;;;;;;;;5315011;26;20005;-86
2024/04/23 02:25:04;;;;;;;0.10;0.10;;;;;;;;;;5375831;26;20021;-87
2024/04/23 02:27:31;;;;;;;0.10;0.10;;;;;;;;;;5318558;26;20008;-86
2024/04/23 02:30:00;;;;;;;0.10;0.10;;;;;;;;;;5348581;26;20015;-86
2024/04/23 02:32:27;;;;;;;0.10;0.10;;;;;;;;;;5318520;26;20028;-86
2024/04/23 02:34:53;;;;;;;0.10;0.10;;;;;;;;;;5376355;26;20013;-86
2024/04/23 02:37:19;;;;;;;0.10;0.10;;;;;;;;;;5347943;26;20020;-84
2024/04/23 02:39:45;;;;;;;0.20;0.20;;;;;;;;;;5347041;26;20005;-86
2024/04/23 02:42:11;;;;;;;0.15;0.15;;;;;;;;;;5318294;26;20035;-86
2024/04/23 02:44:37;;;;;;;0.10;0.10;;;;;;;;;;5346867;26;20008;-86
2024/04/23 02:47:04;;;;;;;0.10;0.10;;;;;;;;;;5376214;26;20005;-85
2024/04/23 02:49:30;;;;;;;0.20;0.20;;;;;;;;;;5347039;26;20012;-86
2024/04/23 02:52:16;;;;;;;0.10;0.10;;;;;;;;;;5347489;26;20388;-86
2024/04/23 02:54:42;;;;;;;0.10;0.10;;;;;;;;;;5318426;26;20015;-86
2024/04/23 02:57:08;;;;;;;0.10;0.10;;;;;;;;;;5318385;26;20001;-86
2024/04/23 02:59:34;;;;;;;0.10;0.10;;;;;;;;;;5318511;26;20005;-86
2024/04/23 03:02:04;;;;;;;0.10;0.10;;;;;;;;;;5347006;26;20074;-87
2024/04/23 03:04:30;;;;;;;0.10;0.10;;;;;;;;;;5348584;26;20340;-86
2024/04/23 03:06:56;;;;;;;0.10;0.10;;;;;;;;;;5318400;26;20016;-86
2024/04/23 03:09:42;;;;;;;0.10;0.10;;;;;;;;;;5347196;26;20314;-86
2024/04/23 03:12:09;;;;;;;0.10;0.10;;;;;;;;;;5348492;26;20005;-86
2024/04/23 03:14:35;;;;;;;0.10;0.10;;;;;;;;;;5347008;26;20326;-87
2024/04/23 03:17:01;;;;;;;0.10;0.10;;;;;;;;;;5317953;26;20013;-87
2024/04/23 03:19:47;;;;;;;0.10;0.10;;;;;;;;;;5323393;26;20472;-86
2024/04/23 03:22:13;;;;;;;0.10;0.10;;;;;;;;;;5375579;26;20013;-86
2024/04/23 03:24:39;;;;;;;0.10;0.10;;;;;;;;;;5375303;26;20016;-86
2024/04/23 03:27:07;;;;;;;0.10;0.10;;;;;;;;;;5318251;26;20008;-86
2024/04/23 03:29:33;;;;;;;0.10;0.10;;;;;;;;;;5375683;26;20012;-86
2024/04/23 03:32:00;;;;;;;0.10;0.10;;;;;;;;;;5317713;26;20004;-86
2024/04/23 03:34:44;;;;;;;0.20;0.20;;;;;;;;;;5321961;26;20009;-86
2024/04/23 03:37:10;;;;;;;0.10;0.10;;;;;;;;;;5348085;26;20013;-87
2024/04/23 03:39:56;;;;;;;0.10;0.10;;;;;;;;;;5346878;26;20265;-86
2024/04/23 03:42:22;;;;;;;0.17;0.17;;;;;;;;;;5346361;26;20005;-87
2024/04/23 03:44:48;;;;;;;0.10;0.10;;;;;;;;;;5375768;26;20012;-86
2024/04/23 03:47:14;;;;;;;0.10;0.10;;;;;;;;;;5317557;26;20051;-86
2024/04/23 03:50:00;;;;;;;0.20;0.20;;;;;;;;;;5346940;26;20005;-86
2024/04/23 03:52:27;;;;;;;0.10;0.10;;;;;;;;;;5317904;26;20004;-86
2024/04/23 03:54:57;;;;;;;0.10;0.10;;;;;;;;;;5318617;26;20005;-86
2024/04/23 03:57:23;;;;;;;0.10;0.10;;;;;;;;;;5347942;26;20024;-86
2024/04/23 04:00:09;;;;;;;0.10;0.10;;;;;;;;;;5322444;26;20468;-86
2024/04/23 04:08:21;;;;;;;0.10;0.10;;;;;;;;;;5347365;26;20015;-86
2024/04/23 04:11:08;;;;;;;0.10;0.10;;;;;;;;;;5345435;26;20012;-86
2024/04/23 04:13:39;;;;;;;0.10;0.10;;;;;;;;;;5347481;26;20031;-85
2024/04/23 04:16:06;;;;;;;0.65;0.47;;;;;;;;;;5345930;26;20065;-86
2024/04/23 04:18:52;;;;;;;0.20;0.20;;;;;;;;;;5346097;26;20005;-86
2024/04/23 04:21:18;;;;;;;0.10;0.10;;;;;;;;;;5347676;26;20033;-86
2024/04/23 04:23:44;;;;;;;0.10;0.10;;;;;;;;;;5374724;26;20005;-86
2024/04/23 04:26:12;;;;;;;0.20;0.20;;;;;;;;;;5316869;26;20396;-86
2024/04/23 04:28:38;;;;;;;0.10;0.10;;;;;;;;;;5375098;26;20011;-86
2024/04/23 04:31:04;;;;;;;0.20;0.20;;;;;;;;;;5374722;26;20004;-86
2024/04/23 04:33:30;;;;;;;0.10;0.10;;;;;;;;;;5345440;26;20496;-86
2024/04/23 04:35:57;;;;;;;0.10;0.10;;;;;;;;;;5345645;26;20000;-87
2024/04/23 04:38:23;;;;;;;0.10;0.10;;;;;;;;;;5316701;26;20352;-88
2024/04/23 04:40:50;;;;;;;0.10;0.10;;;;;;;;;;5347280;26;20012;-87
2024/04/23 04:43:16;;;;;;;0.10;0.10;;;;;;;;;;5345388;26;20453;-87
2024/04/23 04:45:43;;;;;;;0.20;0.20;;;;;;;;;;5374507;26;20523;-86
2024/04/23 04:48:09;;;;;;;0.10;0.10;;;;;;;;;;5343652;26;20306;-87
2024/04/23 04:50:35;;;;;;;0.20;0.20;;;;;;;;;;5345038;26;20016;-87
2024/04/23 04:53:01;;;;;;;0.10;0.10;;;;;;;;;;5346210;26;20129;-86
2024/04/23 04:55:30;;;;;;;0.10;0.10;;;;;;;;;;5374003;26;20083;-86
2024/04/23 04:57:56;;;;;;;0.10;0.10;;;;;;;;;;5316745;26;20029;-86
2024/04/23 05:00:22;;;;;;;0.10;0.10;;;;;;;;;;5345354;26;20005;-86
2024/04/23 05:02:49;;;;;;;0.20;0.20;;;;;;;;;;5346882;26;20005;-86
2024/04/23 05:05:15;;;;;;;0.10;0.10;;;;;;;;;;5345768;26;20016;-87
2024/04/23 05:07:41;;;;;;;0.10;0.10;;;;;;;;;;5374611;26;20073;-86
2024/04/23 05:10:07;;;;;;;0.10;0.10;;;;;;;;;;5374597;26;20015;-88
2024/04/23 05:12:36;;;;;;;0.10;0.10;;;;;;;;;;5317349;26;20016;-87
2024/04/23 05:15:03;;;;;;;0.10;0.10;;;;;;;;;;5317337;26;20139;-87
2024/04/23 05:17:29;;;;;;;0.10;0.10;;;;;;;;;;5346100;26;20004;-87
2024/04/23 05:19:55;;;;;;;0.10;0.10;;;;;;;;;;5346859;26;20004;-88
2024/04/23 05:22:24;;;;;;;0.20;0.20;;;;;;;;;;5347119;26;20333;-86
2024/04/23 05:24:50;;;;;;;0.10;0.10;;;;;;;;;;5344971;26;20013;-86
2024/04/23 05:27:16;;;;;;;0.20;0.20;;;;;;;;;;5346147;26;20045;-86
2024/04/23 05:29:43;;;;;;;0.30;0.30;;;;;;;;;;5315860;26;20004;-86
2024/04/23 05:34:57;;;;;;;0.10;0.10;;;;;;;;;;5346083;26;20046;-86
2024/04/23 05:37:24;;;;;;;0.10;0.10;;;;;;;;;;5344880;26;20047;-86
2024/04/23 05:39:50;;;;;;;0.30;0.30;;;;;;;;;;5316394;26;20013;-86
2024/04/23 05:42:16;;;;;;;0.15;0.15;;;;;;;;;;5345780;26;20078;-86
2024/04/23 05:44:42;;;;;;;0.10;0.10;;;;;;;;;;5344297;26;20016;-86
2024/04/23 05:47:08;;;;;;;0.10;0.10;;;;;;;;;;5343981;26;20005;-86
2024/04/23 05:49:53;;;;;;;0.10;0.10;;;;;;;;;;5344071;26;20456;-86
2024/04/23 05:52:39;;;;;;;0.10;0.10;;;;;;;;;;5345757;26;20005;-86
2024/04/23 05:55:24;;;;;;;0.10;0.10;;;;;;;;;;5373198;26;20109;-86
2024/04/23 05:57:50;;;;;;;0.10;0.10;;;;;;;;;;5345658;26;20012;-86
2024/04/23 06:00:16;;;;;;;0.20;0.20;;;;;;;;;;5376561;26;20005;-86
2024/04/23 06:02:42;;;;;;;0.10;0.10;;;;;;;;;;5376519;26;20079;-87
2024/04/23 06:05:08;;;;;;;0.10;0.10;;;;;;;;;;5376473;26;20017;-87
2024/04/23 06:07:34;;;;;;;0.10;0.10;;;;;;;;;;5318570;26;20013;-86
2024/04/23 06:10:01;;;;;;;0.10;0.10;;;;;;;;;;5318323;26;20009;-87
2024/04/23 06:12:27;;;;;;;0.20;0.20;;;;;;;;;;5376571;26;20437;-87
2024/04/23 06:14:53;;;;;;;0.10;0.10;;;;;;;;;;5347248;26;20086;-86
2024/04/23 06:17:28;;;;;;;0.10;0.10;;;;;;;;;;5348746;26;20016;-85
2024/04/23 06:19:57;;;;;;;0.10;0.10;;;;;;;;;;5318712;26;20019;-85
2024/04/23 06:22:24;;;;;;;0.20;0.20;;;;;;;;;;5347162;26;20403;-85
2024/04/23 06:24:52;;;;;;;0.10;0.10;;;;;;;;;;5360200;26;20019;-84
2024/04/23 06:27:20;;;;;;;0.55;0.55;;;;;;;;;;5318130;26;20020;-85
2024/04/23 06:29:46;;;;;;;0.22;0.22;;;;;;;;;;5349718;26;20020;-85
2024/04/23 06:32:13;;;;;;;0.20;0.20;;;;;;;;;;5318004;26;20112;-85
2024/04/23 06:34:40;;;;;;;0.10;0.10;;;;;;;;;;5346682;26;20024;-85
2024/04/23 06:37:06;;;;;;;0.10;0.10;;;;;;;;;;5317780;26;20048;-85
2024/04/23 06:39:33;;;;;;;0.10;0.10;;;;;;;;;;5375679;26;20033;-86
2024/04/23 06:41:59;;;;;;;0.20;0.20;;;;;;;;;;5317959;26;20009;-84
2024/04/23 06:44:25;;;;;;;0.20;0.20;;;;;;;;;;5318105;26;20069;-86
2024/04/23 06:46:51;;;;;;;0.22;0.22;;;;;;;;;;5346873;26;20012;-86
2024/04/23 06:49:17;;;;;;;0.10;0.10;;;;;;;;;;5348179;26;20006;-85
2024/04/23 06:51:43;;;;;;;0.20;0.20;;;;;;;;;;5348027;26;20040;-85
2024/04/23 06:54:10;;;;;;;0.20;0.20;;;;;;;;;;5317764;26;20012;-85
2024/04/23 06:56:36;;;;;;;0.10;0.10;;;;;;;;;;5347882;26;20449;-85
2024/04/23 06:59:02;;;;;;;0.15;0.15;;;;;;;;;;5317987;26;20008;-84
2024/04/23 07:01:29;;;;;;;0.20;0.20;;;;;;;;;;5346147;26;20021;-90
2024/04/23 07:03:55;;;;;;;0.17;0.17;;;;;;;;;;5348113;26;20009;-87
2024/04/23 07:06:21;;;;;;;0.10;0.10;;;;;;;;;;5348152;26;20020;-86
2024/04/23 07:08:47;;;;;;;0.10;0.10;;;;;;;;;;5369224;26;20443;-86
2024/04/23 07:11:13;;;;;;;0.15;0.15;;;;;;;;;;5380111;26;20023;-86
2024/04/23 07:13:40;;;;;;;0.20;0.20;;;;;;;;;;5381374;26;20015;-86
2024/04/23 07:16:06;;;;;;;0.20;0.20;;;;;;;;;;5382784;26;20008;-84
2024/04/23 07:18:32;;;;;;;0.10;0.10;;;;;;;;;;5381003;26;20023;-87
2024/04/23 07:20:58;;;;;;;0.47;0.30;;;;;;;;;;5381052;26;20016;-87
2024/04/23 07:23:24;;;;;;;0.20;0.20;;;;;;;;;;5382818;26;20022;-86
2024/04/23 07:25:51;;;;;;;0.10;0.10;;;;;;;;;;5380997;26;20004;-84
2024/04/23 07:28:20;;;;;;;0.10;0.10;;;;;;;;;;5382213;26;20044;-86
2024/04/23 07:30:46;;;;;;;0.20;0.20;;;;;;;;;;5380952;26;20023;-87
2024/04/23 07:33:12;;;;;;;0.10;0.10;;;;;;;;;;5382247;26;20039;-88
2024/04/23 07:35:38;;;;;;;0.20;0.20;;;;;;;;;;5351691;26;20016;-86
2024/04/23 07:38:09;;;;;;;0.10;0.10;;;;;;;;;;5351941;26;20486;-83
2024/04/23 07:40:36;;;;;;;0.20;0.20;;;;;;;;;;5352239;26;20032;-85
2024/04/23 07:43:03;;;;;;;0.10;0.10;;;;;;;;;;5382575;26;20425;-85
2024/04/23 07:45:29;;;;;;;0.20;0.20;;;;;;;;;;5380951;26;20001;-84
2024/04/23 07:47:55;;;;;;;0.30;0.30;;;;;;;;;;5380883;26;20347;-85
2024/04/23 07:50:22;;;;;;;0.10;0.10;;;;;;;;;;5380753;26;20011;-85
2024/04/23 07:52:48;;;;;;;0.10;0.10;;;;;;;;;;5382428;26;20012;-85
2024/04/23 07:55:14;;;;;;;0.13;0.13;;;;;;;;;;5380664;26;20067;-85
2024/04/23 07:57:43;;;;;;;0.10;0.10;;;;;;;;;;5351733;26;20032;-85
2024/04/23 08:00:10;;;;;;;0.10;0.10;;;;;;;;;;5382309;26;20015;-85
2024/04/23 08:02:36;;;;;;;0.20;0.20;;;;;;;;;;5380582;26;20004;-85
2024/04/23 08:05:02;;;;;;;0.20;0.20;;;;;;;;;;5382571;26;20000;-86
2024/04/23 08:07:28;;;;;;;0.20;0.20;;;;;;;;;;5380950;26;20005;-86
2024/04/23 08:09:55;;;;;;;0.10;0.10;;;;;;;;;;5351842;26;20004;-87
2024/04/23 08:12:21;;;;;;;0.10;0.10;;;;;;;;;;5351862;26;20011;-89
2024/04/23 08:14:47;;;;;;;0.10;0.10;;;;;;;;;;5351881;26;20082;-86
2024/04/23 08:17:13;;;;;;;0.20;0.20;;;;;;;;;;5380088;26;20077;-86
2024/04/23 08:19:39;;;;;;;0.20;0.20;;;;;;;;;;5350344;26;20082;-90
2024/04/23 08:22:05;;;;;;;0.20;0.20;;;;;;;;;;5345029;26;20141;-83
2024/04/23 08:24:32;;;;;;;0.20;0.20;;;;;;;;;;5317017;26;20005;-87
2024/04/23 08:26:58;;;;;;;0.10;0.10;;;;;;;;;;5347301;26;20005;-86
2024/04/23 08:29:24;;;;;;;0.20;0.20;;;;;;;;;;5374527;26;20456;-86
2024/04/23 08:31:50;;;;;;;0.10;0.10;;;;;;;;;;5346913;26;20016;-86
2024/04/23 08:34:16;;;;;;;0.10;0.10;;;;;;;;;;5346915;26;20005;-87
2024/04/23 08:36:42;;;;;;;0.10;0.10;;;;;;;;;;5316718;26;20499;-87
2024/04/23 08:39:08;;;;;;;0.10;0.10;;;;;;;;;;5345130;26;20341;-87
2024/04/23 08:41:39;;;;;;;0.10;0.10;;;;;;;;;;5345307;26;20071;-87
2024/04/23 08:44:08;;;;;;;0.20;0.20;;;;;;;;;;5374237;26;20412;-89
2024/04/23 08:46:34;;;;;;;0.20;0.20;;;;;;;;;;5347102;26;20005;-89
2024/04/23 08:49:04;;;;;;;0.10;0.10;;;;;;;;;;5316766;26;20460;-86
2024/04/23 08:51:30;;;;;;;0.10;0.10;;;;;;;;;;5374317;26;20005;-87
2024/04/23 08:53:56;;;;;;;0.10;0.10;;;;;;;;;;5346560;26;20017;-87
2024/04/23 08:56:22;;;;;;;0.17;0.17;;;;;;;;;;5344869;26;20005;-86
2024/04/23 08:58:52;;;;;;;0.10;0.10;;;;;;;;;;5344644;26;20011;-84
2024/04/23 09:01:32;;;;;;;0.20;0.20;;;;;;;;;;5373870;26;20016;-84
2024/04/23 09:03:59;;;;;;;0.20;0.20;;;;;;;;;;5345020;26;20005;-87
2024/04/23 09:06:25;;;;;;;0.20;0.20;;;;;;;;;;5316185;26;20016;-86
2024/04/23 09:08:51;;;;;;;0.20;0.20;;;;;;;;;;5374279;26;20000;-85
2024/04/23 09:11:18;;;;;;;0.10;0.10;;;;;;;;;;5315986;26;19996;-88
2024/04/23 09:13:44;;;;;;;0.20;0.20;;;;;;;;;;5345138;26;20005;-87
2024/04/23 09:16:10;;;;;;;0.10;0.10;;;;;;;;;;5344661;26;20005;-87
2024/04/23 09:18:36;;;;;;;0.10;0.10;;;;;;;;;;5373681;26;20033;-86
2024/04/23 09:21:02;;;;;;;0.10;0.10;;;;;;;;;;5346295;26;20037;-89
2024/04/23 09:23:31;;;;;;;0.40;0.40;;;;;;;;;;5346329;26;20004;-87
2024/04/23 09:26:00;;;;;;;0.10;0.10;;;;;;;;;;5316429;26;20005;-91
2024/04/23 09:28:27;;;;;;;0.13;0.13;;;;;;;;;;5316157;26;20005;-90
2024/04/23 09:30:53;;;;;;;0.30;0.20;;;;;;;;;;5316147;26;20071;-90
2024/04/23 09:33:23;;;;;;;0.20;0.20;;;;;;;;;;5288534;26;20005;-90
2024/04/23 09:36:05;;;;;;;0.20;0.20;;;;;;;;;;5319254;26;20004;-86
2024/04/23 09:38:38;;;;;;;0.20;0.20;;;;;;;;;;5349047;26;20012;-85
2024/04/23 09:41:04;;;;;;;0.10;0.10;;;;;;;;;;5290785;26;20005;-85
2024/04/23 09:43:32;;;;;;;0.20;0.20;;;;;;;;;;5350883;26;20305;-86
2024/04/23 09:46:02;;;;;;;0.10;0.10;;;;;;;;;;5348412;26;20005;-85
2024/04/23 09:48:32;;;;;;;0.10;0.10;;;;;;;;;;5347320;26;20082;-86
2024/04/23 09:51:05;;;;;;;0.20;0.20;;;;;;;;;;5347753;26;20005;-87
2024/04/23 09:53:34;;;;;;;0.20;0.20;;;;;;;;;;5319346;26;20294;-85
2024/04/23 09:56:02;;;;;;;0.20;0.20;;;;;;;;;;5348885;26;20044;-84
2024/04/23 09:58:29;;;;;;;0.20;0.20;;;;;;;;;;5318888;26;20333;-84
2024/04/23 10:00:58;;;;;;;0.10;0.10;;;;;;;;;;5289978;26;20004;-84
2024/04/23 10:03:24;;;;;;;0.20;0.20;;;;;;;;;;5376104;26;20012;-83
2024/04/23 10:05:51;;;;;;;0.20;0.20;;;;;;;;;;5376396;26;20005;-85
2024/04/23 10:08:21;;;;;;;0.25;0.20;;;;;;;;;;5318904;26;20005;-83
2024/04/23 10:10:52;;;;;;;0.20;0.20;;;;;;;;;;5350903;26;20060;-85
2024/04/23 10:13:28;;;;;;;0.20;0.20;;;;;;;;;;5347181;26;20017;-84
2024/04/23 10:15:57;;;;;;;0.15;0.15;;;;;;;;;;5318872;26;20290;-84
2024/04/23 10:18:34;;;;;;;0.82;0.75;;;;;;;;;;5348525;26;20005;-82
2024/04/23 10:21:01;;;;;;;0.13;0.13;;;;;;;;;;5348576;26;20445;-81
2024/04/23 10:23:28;;;;;;;0.10;0.10;;;;;;;;;;5318249;26;20005;-82
2024/04/23 10:25:55;;;;;;;0.70;0.20;;;;;;;;;;5348573;26;20016;-82
2024/04/23 10:28:21;;;;;;;0.20;0.20;;;;;;;;;;5375906;26;20012;-83
2024/04/23 10:30:47;;;;;;;0.10;0.10;;;;;;;;;;5348273;26;20036;-84
2024/04/23 10:33:13;;;;;;;0.20;0.20;;;;;;;;;;5352099;26;20019;-82
2024/04/23 10:35:39;;;;;;;0.15;0.15;;;;;;;;;;5352885;26;20009;-83
2024/04/23 10:38:05;;;;;;;0.20;0.20;;;;;;;;;;5346715;26;20009;-83
2024/04/23 10:40:32;;;;;;;0.20;0.20;;;;;;;;;;5347836;26;20464;-82
2024/04/23 10:42:58;;;;;;;0.32;0.32;;;;;;;;;;5346253;26;20459;-82
2024/04/23 10:45:25;;;;;;;0.20;0.20;;;;;;;;;;5317743;26;20005;-82
2024/04/23 10:47:51;;;;;;;0.20;0.20;;;;;;;;;;5348147;26;20392;-82
2024/04/23 10:50:27;;;;;;;0.20;0.20;;;;;;;;;;5346095;26;20451;-82
2024/04/23 10:52:56;;;;;;;0.10;0.10;;;;;;;;;;5317908;26;20036;-83
2024/04/23 10:55:26;;;;;;;0.10;0.10;;;;;;;;;;5346127;26;20013;-82
2024/04/23 10:57:55;;;;;;;0.20;0.20;;;;;;;;;;5347727;26;20082;-82
2024/04/23 11:00:28;;;;;;;0.10;0.10;;;;;;;;;;5347769;26;20019;-82
2024/04/23 11:02:54;;;;;;;0.20;0.20;;;;;;;;;;5346389;26;20009;-82
2024/04/23 11:05:21;;;;;;;0.20;0.20;;;;;;;;;;5347882;26;20049;-82
2024/04/23 11:07:50;;;;;;;0.10;0.10;;;;;;;;;;5317774;26;20017;-82
2024/04/23 11:10:19;;;;;;;0.13;0.13;;;;;;;;;;5346087;26;20372;-82
2024/04/23 11:12:46;;;;;;;0.10;0.10;;;;;;;;;;5375267;26;20013;-81
2024/04/23 11:15:16;;;;;;;0.10;0.10;;;;;;;;;;5375171;26;20009;-82
2024/04/23 11:17:42;;;;;;;0.10;0.10;;;;;;;;;;5317731;26;20005;-81
2024/04/23 11:20:08;;;;;;;0.10;0.10;;;;;;;;;;5346291;26;20008;-82
2024/04/23 11:22:36;;;;;;;0.10;0.10;;;;;;;;;;5317552;26;20022;-82
2024/04/23 11:25:06;;;;;;;0.10;0.10;;;;;;;;;;5317510;26;20145;-82
2024/04/23 11:27:32;;;;;;;0.20;0.20;;;;;;;;;;5317476;26;20008;-82
2024/04/23 11:29:58;;;;;;;0.20;0.20;;;;;;;;;;5347590;26;20005;-81
2024/04/23 11:32:25;;;;;;;0.17;0.17;;;;;;;;;;5345959;26;20017;-81
2024/04/23 11:34:51;;;;;;;0.20;0.20;;;;;;;;;;5347488;26;20433;-82
2024/04/23 11:37:24;;;;;;;0.28;0.28;;;;;;;;;;5317027;26;20009;-82
2024/04/23 11:39:57;;;;;;;0.20;0.20;;;;;;;;;;5346228;26;20090;-88
2024/04/23 11:42:29;;;;;;;0.15;0.15;;;;;;;;;;5317318;26;20020;-83
2024/04/23 11:45:02;;;;;;;0.15;0.15;;;;;;;;;;5347268;26;20060;-87
2024/04/23 11:47:29;;;;;;;0.20;0.20;;;;;;;;;;5317405;26;20004;-83
2024/04/23 11:49:55;;;;;;;0.10;0.10;;;;;;;;;;5345704;26;20086;-83
2024/04/23 11:52:21;;;;;;;0.10;0.10;;;;;;;;;;5374843;26;20038;-83
2024/04/23 11:54:48;;;;;;;0.20;0.20;;;;;;;;;;5345555;26;20391;-83
2024/04/23 11:57:15;;;;;;;0.13;0.13;;;;;;;;;;5316300;26;20023;-88
2024/04/23 11:59:45;;;;;;;0.10;0.10;;;;;;;;;;5345737;26;20287;-85
2024/04/23 12:02:11;;;;;;;0.20;0.20;;;;;;;;;;5347182;26;20055;-84
2024/04/23 12:04:38;;;;;;;0.10;0.10;;;;;;;;;;5288514;26;20079;-83
2024/04/23 12:07:04;;;;;;;0.10;0.10;;;;;;;;;;5316890;26;20005;-84
2024/04/23 12:09:31;;;;;;;0.10;0.10;;;;;;;;;;5374482;26;20007;-83
2024/04/23 12:11:58;;;;;;;0.10;0.10;;;;;;;;;;5316689;26;20078;-87
2024/04/23 12:14:28;;;;;;;0.10;0.10;;;;;;;;;;5317276;26;20005;-85
2024/04/23 12:16:54;;;;;;;0.10;0.10;;;;;;;;;;5316613;26;20004;-84
2024/04/23 12:19:20;;;;;;;0.20;0.20;;;;;;;;;;5288014;26;20028;-86
2024/04/23 12:21:47;;;;;;;0.10;0.10;;;;;;;;;;5345287;26;20015;-86
2024/04/23 12:24:16;;;;;;;0.20;0.20;;;;;;;;;;5345534;26;20005;-83
2024/04/23 12:26:43;;;;;;;0.10;0.10;;;;;;;;;;5345576;26;20005;-86
2024/04/23 12:29:09;;;;;;;0.20;0.20;;;;;;;;;;5316969;26;20362;-86
2024/04/23 12:31:35;;;;;;;0.20;0.20;;;;;;;;;;5374456;26;20024;-84
2024/04/23 12:34:01;;;;;;;0.15;0.15;;;;;;;;;;5316675;26;20110;-85
2024/04/23 12:36:27;;;;;;;0.28;0.28;;;;;;;;;;5316684;26;20012;-85
2024/04/23 12:38:53;;;;;;;0.10;0.10;;;;;;;;;;5344972;26;20357;-85
2024/04/23 12:41:26;;;;;;;0.10;0.10;;;;;;;;;;5345038;26;20111;-85
2024/04/23 12:43:52;;;;;;;;;;;;;;;;;;5317004;26;20004;-86
2024/04/23 12:46:18;;;;;;;0.10;0.10;;;;;;;;;;5403854;26;19958;-85
2024/04/23 12:48:49;;;;;;;0.10;0.10;;;;;;;;;;5374366;26;20038;-86
2024/04/23 12:51:15;;;;;;;0.25;0.22;;;;;;;;;;5344937;26;20004;-83
2024/04/23 12:53:42;;;;;;;0.20;0.20;;;;;;;;;;5316470;26;20017;-83
2024/04/23 12:56:08;;;;;;;0.10;0.10;;;;;;;;;;5344802;26;20437;-83
2024/04/23 12:58:36;;;;;;;0.10;0.10;;;;;;;;;;5344556;26;20015;-84
2024/04/23 13:01:02;;;;;;;0.10;0.10;;;;;;;;;;5322186;26;20023;-84
2024/04/23 13:03:28;;;;;;;0.10;0.10;;;;;;;;;;5363414;26;20023;-84
2024/04/23 13:05:54;;;;;;;0.20;0.20;;;;;;;;;;5401734;26;20004;-84
2024/04/23 13:08:23;;;;;;;0.10;0.10;;;;;;;;;;5340482;26;20437;-83
2024/04/23 13:10:49;;;;;;;0.10;0.10;;;;;;;;;;5349420;26;20004;-84
2024/04/23 13:13:15;;;;;;;0.22;0.22;;;;;;;;;;5379142;26;20036;-84
2024/04/23 13:15:41;;;;;;;0.10;0.10;;;;;;;;;;5377289;26;20038;-89
2024/04/23 13:18:08;;;;;;;0.20;0.20;;;;;;;;;;5379240;26;20015;-83
2024/04/23 13:20:35;;;;;;;0.10;0.10;;;;;;;;;;5344452;26;20126;-85
2024/04/23 13:23:02;;;;;;;0.10;0.10;;;;;;;;;;5346063;26;20012;-84
2024/04/23 13:25:30;;;;;;;0.10;0.10;;;;;;;;;;5373160;26;20005;-85
2024/04/23 13:27:56;;;;;;;0.30;0.30;;;;;;;;;;5345502;26;20005;-85
2024/04/23 13:30:22;;;;;;;0.20;0.20;;;;;;;;;;5344220;26;20005;-85
2024/04/23 13:32:48;;;;;;;0.17;0.17;;;;;;;;;;5344265;26;20005;-84
2024/04/23 13:35:15;;;;;;;0.20;0.20;;;;;;;;;;5344251;26;20004;-83
2024/04/23 13:37:41;;;;;;;0.10;0.10;;;;;;;;;;5344428;26;20080;-84
2024/04/23 13:40:09;;;;;;;0.20;0.20;;;;;;;;;;5343928;26;20013;-85
2024/04/23 13:42:35;;;;;;;0.10;0.10;;;;;;;;;;5373517;26;20009;-88
2024/04/23 13:45:01;;;;;;;0.40;0.40;;;;;;;;;;5344298;26;20433;-87
2024/04/23 13:47:38;;;;;;;0.40;0.40;;;;;;;;;;5344390;26;20015;-87
2024/04/23 13:50:06;;;;;;;0.20;0.20;;;;;;;;;;5344151;26;20243;-88
2024/04/23 13:52:32;;;;;;;0.10;0.10;;;;;;;;;;5315806;26;20004;-88
2024/04/23 13:54:58;;;;;;;0.10;0.10;;;;;;;;;;5344429;26;20005;-87
2024/04/23 13:57:24;;;;;;;0.10;0.10;;;;;;;;;;5344137;26;20016;-86
2024/04/23 13:59:51;;;;;;;0.10;0.10;;;;;;;;;;5344182;26;20005;-86
2024/04/23 14:02:17;;;;;;;0.17;0.17;;;;;;;;;;5314952;26;20025;-87
2024/04/23 14:04:44;;;;;;;0.10;0.10;;;;;;;;;;5344081;26;20009;-87
2024/04/23 14:07:14;;;;;;;0.15;0.15;;;;;;;;;;5344711;26;20009;-86
2024/04/23 14:09:40;;;;;;;0.10;0.10;;;;;;;;;;5343982;26;20161;-86
2024/04/23 14:12:08;;;;;;;0.10;0.10;;;;;;;;;;5315199;26;20005;-86
2024/04/23 14:14:38;;;;;;;0.10;0.10;;;;;;;;;;5344426;26;20001;-90
2024/04/23 14:17:04;;;;;;;0.30;0.30;;;;;;;;;;5344616;26;20005;-89
2024/04/23 14:19:34;;;;;;;0.20;0.20;;;;;;;;;;5344863;26;20012;-88
2024/04/23 14:22:01;;;;;;;0.20;0.20;;;;;;;;;;5347777;26;20001;-87
2024/04/23 14:24:27;;;;;;;0.10;0.10;;;;;;;;;;5347272;26;20000;-86
2024/04/23 14:26:54;;;;;;;0.10;0.10;;;;;;;;;;5347499;26;20531;-87
2024/04/23 14:29:20;;;;;;;0.10;0.10;;;;;;;;;;5347273;26;20086;-88
2024/04/23 14:31:46;;;;;;;0.25;0.25;;;;;;;;;;5319463;26;20378;-89
2024/04/23 14:34:13;;;;;;;0.10;0.10;;;;;;;;;;5347109;26;20007;-88
2024/04/23 14:36:42;;;;;;;0.35;0.20;;;;;;;;;;5347687;26;20015;-88
2024/04/23 14:39:08;;;;;;;0.20;0.20;;;;;;;;;;5347675;26;20004;-88
2024/04/23 14:41:35;;;;;;;0.20;0.20;;;;;;;;;;5347382;26;20079;-87
2024/04/23 14:44:01;;;;;;;0.10;0.10;;;;;;;;;;5347051;26;20072;-87
2024/04/23 14:46:27;;;;;;;0.10;0.10;;;;;;;;;;5347614;26;20012;-90
2024/04/23 14:48:53;;;;;;;0.20;0.20;;;;;;;;;;5347139;26;20104;-87
2024/04/23 14:51:21;;;;;;;0.10;0.10;;;;;;;;;;5318433;26;20071;-88
2024/04/23 14:53:52;;;;;;;0.10;0.10;;;;;;;;;;5350087;26;20019;-90
2024/04/23 14:56:18;;;;;;;0.10;0.10;;;;;;;;;;5347034;26;20033;-88